Airfield :
LOGIN :

Register | Disclaimer

   EN    FR    IT 

 










Legend :    VFR   Marginal VFR   IFR   Intensive IFR   Very Intensive IFR
Visi :
Ceiling :
>= 8 km
>= 3000ft
5 to 8 km
1000 to 3000 ft
1500m to 5 km
500 to 1000 ft
800 to 1500m
200 to 500 ft
< 800m
< 200 ft
Symbols :   Thunderstorms  Fog  Heavy snow  Heavy precipitations  Wind > 20 kt
SIGMETs :     Misc.  Thunderstorms  Icing  Turbulence  Mountain Waves  Volcanic Ashes






- Airport Elevation : 463 ft
- IATA code : SZY
- AIRPORT CLOSED.


EPSY - Szczytno

CURRENT METAR :
  • 211900Z 26009KT 220V290 1600 -DZ BR BKN003 OVC008 03/02 Q1028

EXPIRED METARs :
  • 211830Z 26008KT 230V300 2100 -DZ BR BKN003 OVC007 03/02 Q1028
  • 211800Z 26008KT 220V300 1500 R01/P2000N -DZ BR OVC003 02/02 Q1028
  • 211730Z 27008KT 230V310 3000 BR OVC004 02/02 Q1028
  • 211700Z 25009KT 220V290 4500 BR OVC006 02/02 Q1028
  • 211630Z 25009KT 220V290 7000 OVC008 02/01 Q1028

TAF TAF EPSY
Valid from the 21 at 18:00 until the 22 at 03:00 UTC


211730Z 2118/2203 27010KT 6000 BKN008
TEMPO 2118/2203 2000 -RA BR OVC004
PROB40
TEMPO 2118/2203 28015G26KT



MET'MAP, your aeronautical weather chart ! - Copyright ORBIFLY December 2007 - Disclaimer

ORBIFLY MET'MAP TEAM :

Programming & Development : Alexandra Zaïnal
Concept & original design : Baudouin d'Aumeries
Assistance for programming : Marc-Olivier Méhu
Technical & hardware support : Manuel Goepfert

Contact : metmap@orbifly.com




SOURCES & CREDITS :

   NOAA